sensor_id;sensor_type;location;lat;lon;timestamp;pressure;altitude;pressure_sealevel;temperature;humidity
11676;BME280;5894;42.768;23.404;2023-12-28T00:01:55;96779.66;;;3.81;100.00
11676;BME280;5894;42.768;23.404;2023-12-28T00:04:22;96781.56;;;3.85;100.00
11676;BME280;5894;42.768;23.404;2023-12-28T00:06:49;96784.16;;;3.85;100.00
11676;BME280;5894;42.768;23.404;2023-12-28T00:09:15;96792.78;;;3.86;100.00
11676;BME280;5894;42.768;23.404;2023-12-28T00:11:42;96791.31;;;3.78;100.00
11676;BME280;5894;42.768;23.404;2023-12-28T00:14:11;96789.50;;;3.79;100.00
11676;BME280;5894;42.768;23.404;2023-12-28T00:16:38;96796.78;;;3.77;100.00
11676;BME280;5894;42.768;23.404;2023-12-28T00:19:05;96800.97;;;3.78;100.00
11676;BME280;5894;42.768;23.404;2023-12-28T00:21:32;96804.59;;;3.77;100.00
11676;BME280;5894;42.768;23.404;2023-12-28T00:23:59;96806.53;;;3.81;100.00
11676;BME280;5894;42.768;23.404;2023-12-28T00:26:26;96800.41;;;3.76;100.00
11676;BME280;5894;42.768;23.404;2023-12-28T00:29:01;96810.75;;;3.71;100.00
11676;BME280;5894;42.768;23.404;2023-12-28T00:31:30;96808.69;;;3.73;100.00
11676;BME280;5894;42.768;23.404;2023-12-28T00:33:57;96811.31;;;3.73;100.00
11676;BME280;5894;42.768;23.404;2023-12-28T00:36:24;96805.06;;;3.74;100.00
11676;BME280;5894;42.768;23.404;2023-12-28T00:38:51;96817.66;;;3.77;100.00
11676;BME280;5894;42.768;23.404;2023-12-28T00:41:18;96816.28;;;3.74;100.00
11676;BME280;5894;42.768;23.404;2023-12-28T00:43:45;96822.28;;;3.75;100.00
11676;BME280;5894;42.768;23.404;2023-12-28T00:46:12;96827.28;;;3.64;100.00
11676;BME280;5894;42.768;23.404;2023-12-28T00:48:41;96830.22;;;3.45;100.00
11676;BME280;5894;42.768;23.404;2023-12-28T00:51:08;96794.94;;;3.30;100.00
11676;BME280;5894;42.768;23.404;2023-12-28T00:53:34;96827.97;;;3.48;100.00
11676;BME280;5894;42.768;23.404;2023-12-28T00:56:01;96826.81;;;3.44;100.00
11676;BME280;5894;42.768;23.404;2023-12-28T00:58:29;96823.50;;;3.37;100.00
11676;BME280;5894;42.768;23.404;2023-12-28T01:00:57;96828.72;;;3.37;100.00
11676;BME280;5894;42.768;23.404;2023-12-28T01:03:24;96834.38;;;3.34;100.00
11676;BME280;5894;42.768;23.404;2023-12-28T01:05:53;96836.09;;;3.28;100.00
11676;BME280;5894;42.768;23.404;2023-12-28T01:08:20;96830.66;;;3.30;100.00
11676;BME280;5894;42.768;23.404;2023-12-28T01:10:48;96835.06;;;3.29;100.00
11676;BME280;5894;42.768;23.404;2023-12-28T01:13:15;96828.94;;;3.36;100.00
11676;BME280;5894;42.768;23.404;2023-12-28T01:15:42;96822.63;;;3.31;100.00
11676;BME280;5894;42.768;23.404;2023-12-28T01:18:11;96840.72;;;3.26;100.00
11676;BME280;5894;42.768;23.404;2023-12-28T01:20:37;96836.31;;;3.27;100.00
11676;BME280;5894;42.768;23.404;2023-12-28T01:23:05;96824.28;;;3.26;100.00
11676;BME280;5894;42.768;23.404;2023-12-28T01:25:32;96823.28;;;3.27;100.00
11676;BME280;5894;42.768;23.404;2023-12-28T01:27:59;96829.88;;;3.29;100.00
11676;BME280;5894;42.768;23.404;2023-12-28T01:30:26;96830.44;;;3.31;100.00
11676;BME280;5894;42.768;23.404;2023-12-28T01:32:53;96587.28;;;1.60;100.00
11676;BME280;5894;42.768;23.404;2023-12-28T01:35:20;96837.19;;;3.09;100.00
11676;BME280;5894;42.768;23.404;2023-12-28T01:37:47;96829.94;;;3.11;100.00
11676;BME280;5894;42.768;23.404;2023-12-28T01:40:16;96823.91;;;2.99;100.00
11676;BME280;5894;42.768;23.404;2023-12-28T01:42:45;96823.53;;;2.95;100.00
11676;BME280;5894;42.768;23.404;2023-12-28T01:45:12;96816.72;;;2.94;100.00
11676;BME280;5894;42.768;23.404;2023-12-28T01:47:39;96824.13;;;2.98;100.00
11676;BME280;5894;42.768;23.404;2023-12-28T01:50:07;96821.75;;;3.08;100.00
11676;BME280;5894;42.768;23.404;2023-12-28T01:52:34;96825.75;;;3.10;100.00
11676;BME280;5894;42.768;23.404;2023-12-28T01:55:02;96832.75;;;3.10;100.00
11676;BME280;5894;42.768;23.404;2023-12-28T01:57:31;96829.09;;;2.99;100.00
11676;BME280;5894;42.768;23.404;2023-12-28T01:59:58;96820.66;;;2.85;100.00
11676;BME280;5894;42.768;23.404;2023-12-28T02:02:27;96830.50;;;2.83;100.00
11676;BME280;5894;42.768;23.404;2023-12-28T02:04:54;96825.66;;;2.87;100.00
11676;BME280;5894;42.768;23.404;2023-12-28T02:07:21;96827.78;;;2.78;100.00
11676;BME280;5894;42.768;23.404;2023-12-28T02:09:48;96823.91;;;2.51;100.00
11676;BME280;5894;42.768;23.404;2023-12-28T02:12:15;96815.97;;;2.46;100.00
11676;BME280;5894;42.768;23.404;2023-12-28T02:14:44;96804.06;;;2.38;100.00
11676;BME280;5894;42.768;23.404;2023-12-28T02:17:16;96812.38;;;2.47;100.00
11676;BME280;5894;42.768;23.404;2023-12-28T02:19:49;96773.91;;;2.31;100.00
11676;BME280;5894;42.768;23.404;2023-12-28T02:22:17;96812.97;;;2.61;100.00
11676;BME280;5894;42.768;23.404;2023-12-28T02:25:08;96810.94;;;2.63;100.00
11676;BME280;5894;42.768;23.404;2023-12-28T02:27:38;96796.69;;;2.65;100.00
11676;BME280;5894;42.768;23.404;2023-12-28T02:30:08;96802.81;;;2.71;100.00
11676;BME280;5894;42.768;23.404;2023-12-28T02:32:44;96797.28;;;2.67;100.00
11676;BME280;5894;42.768;23.404;2023-12-28T02:35:18;96804.28;;;2.67;100.00
11676;BME280;5894;42.768;23.404;2023-12-28T02:37:51;96790.59;;;2.71;100.00
11676;BME280;5894;42.768;23.404;2023-12-28T02:40:21;96807.38;;;2.75;100.00
11676;BME280;5894;42.768;23.404;2023-12-28T02:42:48;96803.44;;;2.84;100.00
11676;BME280;5894;42.768;23.404;2023-12-28T02:45:17;96806.41;;;2.88;100.00
11676;BME280;5894;42.768;23.404;2023-12-28T02:47:44;96797.00;;;2.87;100.00
11676;BME280;5894;42.768;23.404;2023-12-28T02:50:12;96795.19;;;2.87;100.00
11676;BME280;5894;42.768;23.404;2023-12-28T02:52:39;96801.41;;;2.86;100.00
11676;BME280;5894;42.768;23.404;2023-12-28T02:55:07;96797.59;;;2.89;100.00
11676;BME280;5894;42.768;23.404;2023-12-28T02:57:35;96794.06;;;2.95;100.00
11676;BME280;5894;42.768;23.404;2023-12-28T03:00:05;96791.25;;;2.97;100.00
11676;BME280;5894;42.768;23.404;2023-12-28T03:02:35;96793.63;;;2.98;100.00
11676;BME280;5894;42.768;23.404;2023-12-28T03:05:03;96799.66;;;2.99;100.00
11676;BME280;5894;42.768;23.404;2023-12-28T03:07:30;96801.69;;;2.97;100.00
11676;BME280;5894;42.768;23.404;2023-12-28T03:09:57;96801.53;;;2.91;100.00
11676;BME280;5894;42.768;23.404;2023-12-28T03:12:24;96800.56;;;2.74;100.00
11676;BME280;5894;42.768;23.404;2023-12-28T03:14:53;96797.97;;;2.74;100.00
11676;BME280;5894;42.768;23.404;2023-12-28T03:17:20;96795.25;;;2.69;100.00
11676;BME280;5894;42.768;23.404;2023-12-28T03:19:47;96795.69;;;2.66;100.00
11676;BME280;5894;42.768;23.404;2023-12-28T03:22:14;96803.13;;;2.63;100.00
11676;BME280;5894;42.768;23.404;2023-12-28T03:24:43;96798.59;;;2.58;100.00
11676;BME280;5894;42.768;23.404;2023-12-28T03:27:10;96790.06;;;2.51;100.00
11676;BME280;5894;42.768;23.404;2023-12-28T03:29:37;96796.00;;;2.58;100.00
11676;BME280;5894;42.768;23.404;2023-12-28T03:32:06;96798.22;;;2.54;100.00
11676;BME280;5894;42.768;23.404;2023-12-28T03:34:33;96798.81;;;2.56;100.00
11676;BME280;5894;42.768;23.404;2023-12-28T03:37:00;96776.44;;;2.37;100.00
11676;BME280;5894;42.768;23.404;2023-12-28T03:39:27;96786.00;;;2.55;100.00
11676;BME280;5894;42.768;23.404;2023-12-28T03:41:54;96796.44;;;2.55;100.00
11676;BME280;5894;42.768;23.404;2023-12-28T03:44:21;96791.66;;;2.52;100.00
11676;BME280;5894;42.768;23.404;2023-12-28T03:46:49;96800.94;;;2.48;100.00
11676;BME280;5894;42.768;23.404;2023-12-28T03:49:18;96806.16;;;2.48;100.00
11676;BME280;5894;42.768;23.404;2023-12-28T03:51:49;96811.41;;;2.41;100.00
11676;BME280;5894;42.768;23.404;2023-12-28T03:54:17;96808.47;;;2.38;100.00
11676;BME280;5894;42.768;23.404;2023-12-28T03:56:45;96800.88;;;2.36;100.00
11676;BME280;5894;42.768;23.404;2023-12-28T03:59:13;96804.91;;;2.32;100.00
11676;BME280;5894;42.768;23.404;2023-12-28T04:01:40;96793.09;;;2.18;100.00
11676;BME280;5894;42.768;23.404;2023-12-28T04:04:08;96812.16;;;2.30;100.00
11676;BME280;5894;42.768;23.404;2023-12-28T04:06:36;96817.13;;;2.32;100.00
11676;BME280;5894;42.768;23.404;2023-12-28T04:09:04;96784.53;;;2.11;100.00
11676;BME280;5894;42.768;23.404;2023-12-28T04:11:31;96823.84;;;2.39;100.00
11676;BME280;5894;42.768;23.404;2023-12-28T04:13:58;96823.50;;;2.36;100.00
11676;BME280;5894;42.768;23.404;2023-12-28T04:16:25;96828.28;;;2.39;100.00
11676;BME280;5894;42.768;23.404;2023-12-28T04:18:52;96830.88;;;2.39;100.00
11676;BME280;5894;42.768;23.404;2023-12-28T04:21:19;96829.50;;;2.36;100.00
11676;BME280;5894;42.768;23.404;2023-12-28T04:23:48;96830.56;;;2.29;100.00
11676;BME280;5894;42.768;23.404;2023-12-28T04:26:18;96836.38;;;2.31;100.00
11676;BME280;5894;42.768;23.404;2023-12-28T04:28:44;96832.16;;;2.30;100.00
11676;BME280;5894;42.768;23.404;2023-12-28T04:31:11;96833.97;;;2.29;100.00
11676;BME280;5894;42.768;23.404;2023-12-28T04:33:39;96837.53;;;2.16;100.00
11676;BME280;5894;42.768;23.404;2023-12-28T04:36:07;96836.81;;;2.09;100.00
11676;BME280;5894;42.768;23.404;2023-12-28T04:38:34;96835.88;;;2.22;100.00
11676;BME280;5894;42.768;23.404;2023-12-28T04:41:03;96840.28;;;2.21;100.00
11676;BME280;5894;42.768;23.404;2023-12-28T04:43:30;96839.47;;;2.21;100.00
11676;BME280;5894;42.768;23.404;2023-12-28T04:45:57;96844.78;;;2.14;100.00
11676;BME280;5894;42.768;23.404;2023-12-28T04:48:26;96837.22;;;1.88;100.00
11676;BME280;5894;42.768;23.404;2023-12-28T04:50:53;96762.22;;;1.24;100.00
11676;BME280;5894;42.768;23.404;2023-12-28T04:53:20;96833.97;;;1.50;100.00
11676;BME280;5894;42.768;23.404;2023-12-28T04:55:46;96831.84;;;1.40;100.00
11676;BME280;5894;42.768;23.404;2023-12-28T04:58:15;96833.03;;;1.44;100.00
11676;BME280;5894;42.768;23.404;2023-12-28T05:00:42;96821.19;;;1.48;100.00
11676;BME280;5894;42.768;23.404;2023-12-28T05:03:09;96826.69;;;1.58;100.00
11676;BME280;5894;42.768;23.404;2023-12-28T05:05:36;96829.47;;;1.63;100.00
11676;BME280;5894;42.768;23.404;2023-12-28T05:08:04;96835.59;;;1.69;100.00
11676;BME280;5894;42.768;23.404;2023-12-28T05:10:31;96824.91;;;1.77;100.00
11676;BME280;5894;42.768;23.404;2023-12-28T05:12:57;96830.78;;;1.72;100.00
11676;BME280;5894;42.768;23.404;2023-12-28T05:15:25;96831.06;;;1.64;100.00
11676;BME280;5894;42.768;23.404;2023-12-28T05:17:52;96842.56;;;1.75;100.00
11676;BME280;5894;42.768;23.404;2023-12-28T05:20:19;96844.56;;;1.48;100.00
11676;BME280;5894;42.768;23.404;2023-12-28T05:22:46;96836.16;;;1.53;100.00
11676;BME280;5894;42.768;23.404;2023-12-28T05:25:14;96830.28;;;1.57;100.00
11676;BME280;5894;42.768;23.404;2023-12-28T05:27:41;96822.63;;;1.44;100.00
11676;BME280;5894;42.768;23.404;2023-12-28T05:30:08;96834.06;;;1.36;100.00
11676;BME280;5894;42.768;23.404;2023-12-28T05:32:37;96841.81;;;1.43;100.00
11676;BME280;5894;42.768;23.404;2023-12-28T05:35:05;96833.25;;;1.36;100.00
11676;BME280;5894;42.768;23.404;2023-12-28T05:37:32;96831.03;;;1.39;100.00
11676;BME280;5894;42.768;23.404;2023-12-28T05:40:00;96836.97;;;1.46;100.00
11676;BME280;5894;42.768;23.404;2023-12-28T05:42:27;96834.63;;;1.45;100.00
11676;BME280;5894;42.768;23.404;2023-12-28T05:44:54;96830.31;;;1.32;100.00
11676;BME280;5894;42.768;23.404;2023-12-28T05:47:21;96836.09;;;1.34;100.00
11676;BME280;5894;42.768;23.404;2023-12-28T05:49:49;96837.91;;;1.34;100.00
11676;BME280;5894;42.768;23.404;2023-12-28T05:52:17;96838.47;;;1.36;100.00
11676;BME280;5894;42.768;23.404;2023-12-28T05:54:44;96837.25;;;1.38;100.00
11676;BME280;5894;42.768;23.404;2023-12-28T05:57:11;96841.97;;;1.48;100.00
11676;BME280;5894;42.768;23.404;2023-12-28T05:59:38;96835.72;;;1.56;100.00
11676;BME280;5894;42.768;23.404;2023-12-28T06:02:06;96838.09;;;1.57;100.00
11676;BME280;5894;42.768;23.404;2023-12-28T06:04:33;96838.09;;;1.57;100.00
11676;BME280;5894;42.768;23.404;2023-12-28T06:07:03;96850.53;;;1.55;100.00
11676;BME280;5894;42.768;23.404;2023-12-28T06:09:30;96852.09;;;1.56;100.00
11676;BME280;5894;42.768;23.404;2023-12-28T06:11:57;96854.13;;;1.54;100.00
11676;BME280;5894;42.768;23.404;2023-12-28T06:14:24;96852.16;;;1.50;100.00
11676;BME280;5894;42.768;23.404;2023-12-28T06:16:51;96843.97;;;1.46;100.00
11676;BME280;5894;42.768;23.404;2023-12-28T06:19:18;96852.00;;;1.44;100.00
11676;BME280;5894;42.768;23.404;2023-12-28T06:21:45;96857.94;;;1.52;100.00
11676;BME280;5894;42.768;23.404;2023-12-28T06:24:13;96858.16;;;1.50;100.00
11676;BME280;5894;42.768;23.404;2023-12-28T06:26:40;96859.75;;;1.51;100.00
11676;BME280;5894;42.768;23.404;2023-12-28T06:29:08;96864.75;;;1.53;100.00
11676;BME280;5894;42.768;23.404;2023-12-28T06:31:35;96870.94;;;1.52;100.00
11676;BME280;5894;42.768;23.404;2023-12-28T06:34:02;96870.56;;;1.48;100.00
11676;BME280;5894;42.768;23.404;2023-12-28T06:36:29;96873.38;;;1.46;100.00
11676;BME280;5894;42.768;23.404;2023-12-28T06:38:57;96875.75;;;1.48;100.00
11676;BME280;5894;42.768;23.404;2023-12-28T06:41:25;96848.91;;;1.29;100.00
11676;BME280;5894;42.768;23.404;2023-12-28T06:43:52;96845.13;;;1.25;100.00
11676;BME280;5894;42.768;23.404;2023-12-28T06:46:21;96870.56;;;1.48;100.00
11676;BME280;5894;42.768;23.404;2023-12-28T06:48:48;96879.97;;;1.49;100.00
11676;BME280;5894;42.768;23.404;2023-12-28T06:51:19;96882.34;;;1.51;100.00
11676;BME280;5894;42.768;23.404;2023-12-28T06:53:48;96872.22;;;1.42;100.00
11676;BME280;5894;42.768;23.404;2023-12-28T06:56:15;96883.16;;;1.51;100.00
11676;BME280;5894;42.768;23.404;2023-12-28T06:58:43;96861.50;;;1.32;100.00
11676;BME280;5894;42.768;23.404;2023-12-28T07:01:10;96885.00;;;1.44;100.00
11676;BME280;5894;42.768;23.404;2023-12-28T07:03:39;96883.41;;;1.43;100.00
11676;BME280;5894;42.768;23.404;2023-12-28T07:06:06;96625.00;;;-0.17;100.00
11676;BME280;5894;42.768;23.404;2023-12-28T07:08:33;96877.41;;;1.42;100.00
11676;BME280;5894;42.768;23.404;2023-12-28T07:11:00;96871.03;;;1.38;100.00
11676;BME280;5894;42.768;23.404;2023-12-28T07:13:26;96860.06;;;1.36;100.00
11676;BME280;5894;42.768;23.404;2023-12-28T07:15:55;96876.22;;;1.45;100.00
11676;BME280;5894;42.768;23.404;2023-12-28T07:18:22;96876.34;;;1.50;100.00
11676;BME280;5894;42.768;23.404;2023-12-28T07:20:49;96886.16;;;1.48;100.00
11676;BME280;5894;42.768;23.404;2023-12-28T07:23:16;96879.63;;;1.39;100.00
11676;BME280;5894;42.768;23.404;2023-12-28T07:25:43;96880.16;;;1.47;100.00
11676;BME280;5894;42.768;23.404;2023-12-28T07:28:10;96859.81;;;1.44;100.00
11676;BME280;5894;42.768;23.404;2023-12-28T07:30:38;96879.53;;;1.52;100.00
11676;BME280;5894;42.768;23.404;2023-12-28T07:33:06;96878.75;;;1.52;100.00
11676;BME280;5894;42.768;23.404;2023-12-28T07:35:33;96881.94;;;1.54;100.00
11676;BME280;5894;42.768;23.404;2023-12-28T07:38:00;96879.94;;;1.56;100.00
11676;BME280;5894;42.768;23.404;2023-12-28T07:40:27;96885.28;;;1.61;100.00
11676;BME280;5894;42.768;23.404;2023-12-28T07:42:54;96879.38;;;1.47;100.00
11676;BME280;5894;42.768;23.404;2023-12-28T07:45:21;96880.50;;;1.58;100.00
11676;BME280;5894;42.768;23.404;2023-12-28T07:47:50;96819.59;;;1.22;100.00
11676;BME280;5894;42.768;23.404;2023-12-28T07:50:19;96832.84;;;1.39;100.00
11676;BME280;5894;42.768;23.404;2023-12-28T07:52:46;96892.41;;;1.72;100.00
11676;BME280;5894;42.768;23.404;2023-12-28T07:55:13;96888.56;;;1.74;100.00
11676;BME280;5894;42.768;23.404;2023-12-28T07:57:40;96886.50;;;1.83;100.00
11676;BME280;5894;42.768;23.404;2023-12-28T08:00:07;96880.72;;;1.81;100.00
11676;BME280;5894;42.768;23.404;2023-12-28T08:02:34;96890.22;;;1.94;100.00
11676;BME280;5894;42.768;23.404;2023-12-28T08:05:01;96884.00;;;1.95;100.00
11676;BME280;5894;42.768;23.404;2023-12-28T08:07:30;96880.53;;;2.01;100.00
11676;BME280;5894;42.768;23.404;2023-12-28T08:09:58;96883.63;;;2.09;100.00
11676;BME280;5894;42.768;23.404;2023-12-28T08:12:25;96881.41;;;2.13;100.00
11676;BME280;5894;42.768;23.404;2023-12-28T08:14:53;96885.53;;;2.20;100.00
11676;BME280;5894;42.768;23.404;2023-12-28T08:17:20;96886.19;;;2.34;100.00
11676;BME280;5894;42.768;23.404;2023-12-28T08:19:47;96887.78;;;2.35;100.00
11676;BME280;5894;42.768;23.404;2023-12-28T08:22:14;96887.28;;;2.45;100.00
11676;BME280;5894;42.768;23.404;2023-12-28T08:24:43;96879.31;;;2.40;100.00
11676;BME280;5894;42.768;23.404;2023-12-28T08:27:11;96882.78;;;2.52;100.00
11676;BME280;5894;42.768;23.404;2023-12-28T08:29:39;96874.41;;;2.50;100.00
11676;BME280;5894;42.768;23.404;2023-12-28T08:32:07;96874.56;;;2.55;100.00
11676;BME280;5894;42.768;23.404;2023-12-28T08:34:34;96874.47;;;2.62;100.00
11676;BME280;5894;42.768;23.404;2023-12-28T08:37:01;96869.19;;;2.68;100.00
11676;BME280;5894;42.768;23.404;2023-12-28T08:39:28;96862.91;;;2.57;100.00
11676;BME280;5894;42.768;23.404;2023-12-28T08:41:57;96865.31;;;2.59;100.00
11676;BME280;5894;42.768;23.404;2023-12-28T08:44:24;96861.66;;;2.60;100.00
11676;BME280;5894;42.768;23.404;2023-12-28T08:46:50;96869.63;;;2.65;100.00
11676;BME280;5894;42.768;23.404;2023-12-28T08:49:17;96866.50;;;2.75;100.00
11676;BME280;5894;42.768;23.404;2023-12-28T08:51:44;96849.84;;;2.76;100.00
11676;BME280;5894;42.768;23.404;2023-12-28T08:54:13;96846.66;;;2.74;100.00
11676;BME280;5894;42.768;23.404;2023-12-28T08:56:40;96846.66;;;2.74;100.00
11676;BME280;5894;42.768;23.404;2023-12-28T08:59:08;96834.44;;;2.74;100.00
11676;BME280;5894;42.768;23.404;2023-12-28T09:01:35;96845.81;;;2.80;100.00
11676;BME280;5894;42.768;23.404;2023-12-28T09:04:02;96856.34;;;2.85;100.00
11676;BME280;5894;42.768;23.404;2023-12-28T09:06:29;96847.50;;;2.86;100.00
11676;BME280;5894;42.768;23.404;2023-12-28T09:08:56;96843.22;;;2.91;100.00
11676;BME280;5894;42.768;23.404;2023-12-28T09:11:24;96840.53;;;2.98;100.00
11676;BME280;5894;42.768;23.404;2023-12-28T09:13:51;96828.44;;;3.04;100.00
11676;BME280;5894;42.768;23.404;2023-12-28T09:16:19;96825.59;;;3.05;100.00
11676;BME280;5894;42.768;23.404;2023-12-28T09:18:46;96830.97;;;3.10;100.00
11676;BME280;5894;42.768;23.404;2023-12-28T09:21:13;96824.47;;;3.13;100.00
11676;BME280;5894;42.768;23.404;2023-12-28T09:23:40;96812.72;;;3.10;100.00
11676;BME280;5894;42.768;23.404;2023-12-28T09:26:07;96814.78;;;3.20;100.00
11676;BME280;5894;42.768;23.404;2023-12-28T09:28:34;96800.81;;;3.26;100.00
11676;BME280;5894;42.768;23.404;2023-12-28T09:31:02;96800.16;;;3.30;100.00
11676;BME280;5894;42.768;23.404;2023-12-28T09:33:31;96793.81;;;3.38;100.00
11676;BME280;5894;42.768;23.404;2023-12-28T09:35:58;96788.59;;;3.38;100.00
11676;BME280;5894;42.768;23.404;2023-12-28T09:38:25;96781.13;;;3.42;100.00
11676;BME280;5894;42.768;23.404;2023-12-28T09:40:54;96773.97;;;3.49;100.00
11676;BME280;5894;42.768;23.404;2023-12-28T09:43:23;96772.75;;;3.51;100.00
11676;BME280;5894;42.768;23.404;2023-12-28T09:45:51;96763.34;;;3.62;100.00
11676;BME280;5894;42.768;23.404;2023-12-28T09:48:19;96761.97;;;3.71;100.00
11676;BME280;5894;42.768;23.404;2023-12-28T09:50:50;96716.47;;;3.55;100.00
11676;BME280;5894;42.768;23.404;2023-12-28T09:53:20;96751.38;;;3.89;100.00
11676;BME280;5894;42.768;23.404;2023-12-28T09:55:48;96742.88;;;3.94;100.00
11676;BME280;5894;42.768;23.404;2023-12-28T09:58:17;96739.00;;;3.96;100.00
11676;BME280;5894;42.768;23.404;2023-12-28T10:00:46;96732.75;;;3.97;100.00
11676;BME280;5894;42.768;23.404;2023-12-28T10:03:14;96726.06;;;4.01;100.00
11676;BME280;5894;42.768;23.404;2023-12-28T10:05:42;96730.13;;;4.09;100.00
11676;BME280;5894;42.768;23.404;2023-12-28T10:08:10;96726.72;;;4.09;100.00
11676;BME280;5894;42.768;23.404;2023-12-28T10:10:37;96723.66;;;4.12;100.00
11676;BME280;5894;42.768;23.404;2023-12-28T10:13:06;96722.69;;;4.18;100.00
11676;BME280;5894;42.768;23.404;2023-12-28T10:15:33;96722.09;;;4.27;100.00
11676;BME280;5894;42.768;23.404;2023-12-28T10:18:00;96717.56;;;4.34;100.00
11676;BME280;5894;42.768;23.404;2023-12-28T10:20:26;96708.31;;;4.43;100.00
11676;BME280;5894;42.768;23.404;2023-12-28T10:22:53;96717.69;;;4.56;100.00
11676;BME280;5894;42.768;23.404;2023-12-28T10:25:22;96695.03;;;4.62;100.00
11676;BME280;5894;42.768;23.404;2023-12-28T10:27:50;96695.69;;;4.69;100.00
11676;BME280;5894;42.768;23.404;2023-12-28T10:30:19;96688.72;;;4.74;100.00
11676;BME280;5894;42.768;23.404;2023-12-28T10:32:47;96648.72;;;4.57;100.00
11676;BME280;5894;42.768;23.404;2023-12-28T10:35:14;96671.94;;;4.87;100.00
11676;BME280;5894;42.768;23.404;2023-12-28T10:37:42;96665.38;;;4.85;100.00
11676;BME280;5894;42.768;23.404;2023-12-28T10:40:13;96655.63;;;4.97;100.00
11676;BME280;5894;42.768;23.404;2023-12-28T10:42:49;96650.78;;;5.05;100.00
11676;BME280;5894;42.768;23.404;2023-12-28T10:45:19;96647.06;;;5.18;100.00
11676;BME280;5894;42.768;23.404;2023-12-28T10:47:56;96648.50;;;5.31;100.00
11676;BME280;5894;42.768;23.404;2023-12-28T10:50:29;96639.97;;;5.35;100.00
11676;BME280;5894;42.768;23.404;2023-12-28T10:53:04;96629.50;;;5.35;100.00
11676;BME280;5894;42.768;23.404;2023-12-28T10:55:39;96633.41;;;5.54;100.00
11676;BME280;5894;42.768;23.404;2023-12-28T10:58:14;96626.53;;;5.70;100.00
11676;BME280;5894;42.768;23.404;2023-12-28T11:00:49;96619.63;;;5.86;100.00
11676;BME280;5894;42.768;23.404;2023-12-28T11:03:26;96620.56;;;5.97;100.00
11676;BME280;5894;42.768;23.404;2023-12-28T11:05:54;96619.66;;;6.08;100.00
11676;BME280;5894;42.768;23.404;2023-12-28T11:08:22;96613.69;;;6.12;100.00
11676;BME280;5894;42.768;23.404;2023-12-28T11:10:51;96616.63;;;6.21;100.00
11676;BME280;5894;42.768;23.404;2023-12-28T11:13:23;96597.78;;;6.24;100.00
11676;BME280;5894;42.768;23.404;2023-12-28T11:15:50;96616.59;;;6.43;100.00
11676;BME280;5894;42.768;23.404;2023-12-28T11:18:18;96599.38;;;6.52;100.00
11676;BME280;5894;42.768;23.404;2023-12-28T11:20:46;96595.72;;;6.58;100.00
11676;BME280;5894;42.768;23.404;2023-12-28T11:23:15;96573.97;;;6.57;100.00
11676;BME280;5894;42.768;23.404;2023-12-28T11:25:42;96594.53;;;6.76;100.00
11676;BME280;5894;42.768;23.404;2023-12-28T11:28:10;96594.34;;;6.82;100.00
11676;BME280;5894;42.768;23.404;2023-12-28T11:30:38;96587.59;;;6.91;100.00
11676;BME280;5894;42.768;23.404;2023-12-28T11:33:08;96578.19;;;7.00;100.00
11676;BME280;5894;42.768;23.404;2023-12-28T11:35:38;96587.97;;;7.10;100.00
11676;BME280;5894;42.768;23.404;2023-12-28T11:38:08;96585.34;;;7.10;100.00
11676;BME280;5894;42.768;23.404;2023-12-28T11:40:44;96590.38;;;7.22;100.00
11676;BME280;5894;42.768;23.404;2023-12-28T11:43:17;96571.53;;;7.30;100.00
11676;BME280;5894;42.768;23.404;2023-12-28T11:45:50;96565.53;;;7.34;100.00
11676;BME280;5894;42.768;23.404;2023-12-28T11:48:23;96558.50;;;7.45;100.00
11676;BME280;5894;42.768;23.404;2023-12-28T11:50:54;96535.13;;;7.49;100.00
11676;BME280;5894;42.768;23.404;2023-12-28T11:53:22;96539.63;;;7.53;100.00
11676;BME280;5894;42.768;23.404;2023-12-28T11:55:49;96511.00;;;7.52;100.00
11676;BME280;5894;42.768;23.404;2023-12-28T11:58:16;96536.28;;;7.78;100.00
11676;BME280;5894;42.768;23.404;2023-12-28T12:00:43;96538.13;;;7.93;100.00
11676;BME280;5894;42.768;23.404;2023-12-28T12:03:12;96493.19;;;7.79;100.00
11676;BME280;5894;42.768;23.404;2023-12-28T12:05:39;96531.34;;;8.17;100.00
11676;BME280;5894;42.768;23.404;2023-12-28T12:08:06;96514.53;;;8.23;100.00
11676;BME280;5894;42.768;23.404;2023-12-28T12:10:35;96530.06;;;8.45;100.00
11676;BME280;5894;42.768;23.404;2023-12-28T12:13:03;96532.44;;;8.57;100.00
11676;BME280;5894;42.768;23.404;2023-12-28T12:15:30;96525.06;;;8.59;100.00
11676;BME280;5894;42.768;23.404;2023-12-28T12:17:57;96531.34;;;8.73;100.00
11676;BME280;5894;42.768;23.404;2023-12-28T12:20:26;96533.47;;;8.81;100.00
11676;BME280;5894;42.768;23.404;2023-12-28T12:22:57;96529.47;;;8.94;100.00
11676;BME280;5894;42.768;23.404;2023-12-28T12:25:24;96528.66;;;9.03;100.00
11676;BME280;5894;42.768;23.404;2023-12-28T12:27:52;96528.66;;;9.08;100.00
11676;BME280;5894;42.768;23.404;2023-12-28T12:30:19;96513.13;;;9.12;100.00
11676;BME280;5894;42.768;23.404;2023-12-28T12:32:48;96529.91;;;9.26;100.00
11676;BME280;5894;42.768;23.404;2023-12-28T12:35:16;96530.91;;;9.35;100.00
11676;BME280;5894;42.768;23.404;2023-12-28T12:37:46;96534.03;;;9.47;100.00
11676;BME280;5894;42.768;23.404;2023-12-28T12:40:15;96527.19;;;9.51;100.00
11676;BME280;5894;42.768;23.404;2023-12-28T12:42:42;96531.63;;;9.56;100.00
11676;BME280;5894;42.768;23.404;2023-12-28T12:45:09;96475.41;;;9.32;100.00
11676;BME280;5894;42.768;23.404;2023-12-28T12:47:36;96517.31;;;9.72;100.00
11676;BME280;5894;42.768;23.404;2023-12-28T12:50:04;96493.16;;;9.60;100.00
11676;BME280;5894;42.768;23.404;2023-12-28T12:52:31;96523.06;;;9.84;100.00
11676;BME280;5894;42.768;23.404;2023-12-28T12:55:00;96528.25;;;9.94;100.00
11676;BME280;5894;42.768;23.404;2023-12-28T12:57:29;96524.31;;;9.92;100.00
11676;BME280;5894;42.768;23.404;2023-12-28T12:59:56;96519.84;;;9.87;100.00
11676;BME280;5894;42.768;23.404;2023-12-28T13:02:23;96528.50;;;9.98;100.00
11676;BME280;5894;42.768;23.404;2023-12-28T13:04:51;96530.31;;;10.03;100.00